Time;durP1;ratioP1;P1;durP2;ratioP2;P2;SDS_P1;SDS_P2;PMS_P1;PMS_P2;Temp;Humidity;BMP_temperature;BMP_pressure;BME280_temperature;BME280_humidity;BME280_pressure;Samples;Min_cycle;Max_cycle;Signal;HPM_P1;HPM_P2
2021/09/30 00:00:17;;;;;;;170.63;157.07;;;11.20;99.90;;;;;;5057108;28;20250;-85
2021/09/30 00:02:42;;;;;;;174.45;160.82;;;11.10;99.90;;;;;;5057114;28;20194;-85
2021/09/30 00:05:12;;;;;;;168.97;155.57;;;11.10;99.90;;;;;;5056993;28;20505;-85
2021/09/30 00:07:38;;;;;;;172.65;158.73;;;11.10;99.90;;;;;;5056824;28;20419;-85
2021/09/30 00:10:06;;;;;;;187.45;173.55;;;11.10;99.90;;;;;;5057028;28;20160;-85
2021/09/30 00:12:36;;;;;;;176.73;163.30;;;11.10;99.90;;;;;;5056625;28;20296;-85
2021/09/30 00:15:08;;;;;;;174.07;160.35;;;11.00;99.90;;;;;;5056821;28;20161;-85
2021/09/30 00:34:05;;;;;;;152.30;138.75;;;11.10;99.90;;;;;;5056815;28;20206;-84
2021/09/30 01:19:08;;;;;;;145.45;132.93;;;10.80;99.90;;;;;;5056049;28;20195;-85
2021/09/30 01:57:35;;;;;;;154.82;141.45;;;10.70;99.90;;;;;;5060039;28;20168;-84
2021/09/30 02:20:14;;;;;;;170.40;156.85;;;10.60;99.90;;;;;;5059627;28;20175;-84
2021/09/30 02:23:05;;;;;;;176.93;163.18;;;10.70;99.90;;;;;;5041127;28;20188;-84
2021/09/30 02:58:38;;;;;;;154.52;141.52;;;10.60;99.90;;;;;;5058957;28;20196;-84
2021/09/30 03:01:19;;;;;;;136.60;124.25;;;10.50;99.90;;;;;;5039655;28;20215;-84
2021/09/30 03:03:46;;;;;;;161.75;147.95;;;10.50;99.90;;;;;;5058349;28;20582;-84
2021/09/30 03:06:13;;;;;;;138.48;126.15;;;10.50;99.90;;;;;;5058544;28;20164;-84
2021/09/30 03:08:48;;;;;;;144.10;131.43;;;10.40;99.90;;;;;;5057815;28;20186;-85
2021/09/30 03:11:16;;;;;;;133.45;120.82;;;10.40;99.90;;;;;;5057592;28;20152;-84
2021/09/30 03:13:45;;;;;;;143.40;130.57;;;10.40;99.90;;;;;;5040058;28;20165;-85
2021/09/30 03:18:52;;;;;;;149.27;136.35;;;10.40;99.90;;;;;;5058202;28;20192;-84
2021/09/30 03:24:12;;;;;;;189.05;174.38;;;10.30;99.90;;;;;;5034018;28;20176;-84
2021/09/30 03:26:39;;;;;;;153.07;140.25;;;10.30;99.90;;;;;;5057792;28;20164;-84
2021/09/30 03:29:06;;;;;;;157.80;143.93;;;10.30;99.90;;;;;;5057358;28;20166;-84
2021/09/30 03:31:33;;;;;;;137.88;125.43;;;10.30;99.90;;;;;;5039518;28;20331;-84
2021/09/30 03:34:00;;;;;;;147.70;134.57;;;10.30;99.90;;;;;;5039853;28;20180;-84
2021/09/30 03:36:29;;;;;;;155.57;142.10;;;10.30;99.90;;;;;;5057459;28;20222;-84
2021/09/30 03:38:55;;;;;;;131.30;118.78;;;10.30;99.90;;;;;;5040435;28;20176;-84
2021/09/30 03:41:21;;;;;;;133.60;120.72;;;10.20;99.90;;;;;;5056969;28;20267;-82
2021/09/30 03:43:47;;;;;;;117.07;105.28;;;10.20;99.90;;;;;;5057536;28;20553;-84
2021/09/30 03:46:12;;;;;;;109.27;97.93;;;10.10;99.90;;;;;;5057567;28;20164;-84
2021/09/30 03:48:38;;;;;;;150.37;137.33;;;10.10;99.90;;;;;;5057388;28;20246;-84
2021/09/30 03:56:31;;;;;;;151.52;138.25;;;10.00;99.90;;;;;;5057394;28;20318;-84
2021/09/30 03:59:09;;;;;;;147.82;135.13;;;10.00;99.90;;;;;;5056600;28;20647;-84
2021/09/30 04:01:35;;;;;;;118.65;107.05;;;10.00;99.90;;;;;;5057214;28;20192;-84
2021/09/30 04:04:00;;;;;;;125.37;113.03;;;10.10;99.90;;;;;;5038190;28;20686;-84
2021/09/30 04:06:26;;;;;;;108.83;97.63;;;10.00;99.90;;;;;;5056698;28;20166;-85
2021/09/30 04:08:56;;;;;;;126.57;114.27;;;9.90;99.90;;;;;;5056580;28;20156;-85
2021/09/30 04:11:22;;;;;;;131.75;119.72;;;9.90;99.90;;;;;;5037281;28;20149;-85
2021/09/30 04:13:47;;;;;;;141.17;128.70;;;9.90;99.90;;;;;;5038902;28;20683;-84
2021/09/30 04:16:13;;;;;;;125.17;113.50;;;9.90;99.90;;;;;;5038805;28;20580;-84
2021/09/30 04:18:39;;;;;;;163.83;150.73;;;9.80;99.90;;;;;;5056308;28;20243;-85
2021/09/30 04:21:04;;;;;;;146.50;133.97;;;9.80;99.90;;;;;;5038279;28;20211;-84
2021/09/30 04:23:30;;;;;;;146.07;133.23;;;9.80;99.90;;;;;;5055928;28;20164;-85
2021/09/30 04:25:56;;;;;;;102.33;91.20;;;9.80;99.90;;;;;;5056309;28;20173;-85
2021/09/30 04:28:21;;;;;;;137.83;125.43;;;9.80;99.90;;;;;;5038032;28;20180;-85
2021/09/30 04:30:47;;;;;;;131.93;119.87;;;9.70;99.90;;;;;;5056087;28;20165;-84
2021/09/30 04:33:13;;;;;;;156.03;143.30;;;9.70;99.90;;;;;;5056532;28;20168;-85
2021/09/30 04:35:38;;;;;;;132.43;120.27;;;9.70;99.90;;;;;;5038258;28;20571;-85
2021/09/30 04:38:10;;;;;;;140.47;128.27;;;9.70;99.90;;;;;;5056097;28;20207;-85
2021/09/30 04:40:36;;;;;;;137.32;124.97;;;9.70;99.90;;;;;;5055959;28;20160;-85
2021/09/30 04:43:03;;;;;;;134.65;122.30;;;9.70;99.90;;;;;;5056019;28;20192;-84
2021/09/30 04:45:28;;;;;;;119.00;106.80;;;9.70;99.90;;;;;;5038409;28;20169;-85
2021/09/30 04:47:55;;;;;;;131.60;119.60;;;9.70;99.90;;;;;;5038310;28;20223;-85
2021/09/30 04:50:21;;;;;;;132.10;120.10;;;9.70;99.90;;;;;;5038436;28;20172;-84
2021/09/30 04:52:46;;;;;;;120.70;108.53;;;9.70;99.90;;;;;;5055925;28;20160;-85
2021/09/30 04:55:12;;;;;;;130.87;118.47;;;9.70;99.90;;;;;;5055797;28;20168;-84
2021/09/30 04:57:38;;;;;;;112.27;100.87;;;9.60;99.90;;;;;;5055407;28;20231;-85
2021/09/30 05:00:04;;;;;;;129.63;117.60;;;9.60;99.90;;;;;;5055882;28;20164;-84
2021/09/30 05:02:30;;;;;;;108.35;96.70;;;9.70;99.90;;;;;;5038146;28;20199;-84
2021/09/30 05:04:58;;;;;;;139.40;126.77;;;9.60;99.90;;;;;;5055568;28;20643;-85
2021/09/30 05:07:24;;;;;;;106.05;94.78;;;9.60;99.90;;;;;;5056008;28;20232;-84
2021/09/30 05:09:52;;;;;;;127.83;115.43;;;9.60;99.90;;;;;;5056225;28;20238;-85
2021/09/30 05:12:18;;;;;;;124.68;112.70;;;9.40;99.90;;;;;;5038391;28;20197;-84
2021/09/30 05:14:44;;;;;;;117.82;105.93;;;9.50;99.90;;;;;;5037838;28;20218;-84
2021/09/30 05:17:10;;;;;;;113.27;101.83;;;9.50;99.90;;;;;;5055982;28;20192;-84
2021/09/30 05:19:36;;;;;;;131.90;119.40;;;9.50;99.90;;;;;;5055894;28;20165;-85
2021/09/30 05:22:01;;;;;;;154.93;141.77;;;9.50;99.90;;;;;;5056199;28;20188;-84
2021/09/30 05:24:27;;;;;;;142.17;129.13;;;9.50;99.90;;;;;;5059724;28;20426;-84
2021/09/30 05:26:52;;;;;;;170.00;155.90;;;9.60;99.90;;;;;;5059207;28;20247;-84
2021/09/30 05:29:18;;;;;;;137.07;124.67;;;9.60;99.90;;;;;;5059759;28;20188;-85
2021/09/30 05:31:44;;;;;;;124.63;112.80;;;9.60;99.90;;;;;;5041313;28;20168;-84
2021/09/30 05:34:10;;;;;;;162.73;148.60;;;9.50;99.90;;;;;;5059553;28;20217;-84
2021/09/30 05:36:35;;;;;;;188.50;173.43;;;9.60;99.90;;;;;;5041320;28;20164;-85
2021/09/30 05:39:02;;;;;;;150.20;137.27;;;9.60;99.90;;;;;;5041458;28;20173;-83
2021/09/30 05:41:31;;;;;;;128.20;115.80;;;9.50;99.90;;;;;;5058433;28;20559;-84
2021/09/30 05:43:59;;;;;;;173.65;159.13;;;9.40;99.90;;;;;;5058261;28;20528;-84
2021/09/30 05:46:35;;;;;;;220.75;204.65;;;9.40;99.90;;;;;;5058291;28;20168;-84
2021/09/30 05:49:01;;;;;;;152.98;139.48;;;9.50;99.90;;;;;;5040463;28;20160;-84
2021/09/30 05:51:26;;;;;;;153.07;140.13;;;9.50;99.90;;;;;;5058178;28;20180;-84
2021/09/30 05:53:52;;;;;;;141.40;128.17;;;9.50;99.90;;;;;;5041515;28;20410;-86
2021/09/30 05:56:18;;;;;;;152.90;139.27;;;9.40;99.90;;;;;;5060186;28;20204;-86
2021/09/30 05:58:44;;;;;;;199.30;183.60;;;9.30;99.90;;;;;;5059674;28;20238;-86
2021/09/30 06:02:18;;;;;;;272.90;254.63;;;9.30;99.90;;;;;;5041861;28;20667;-86
2021/09/30 06:10:42;;;;;;;157.25;144.25;;;9.50;99.90;;;;;;4978819;28;20308;-86
2021/09/30 06:16:06;;;;;;;160.82;146.93;;;9.50;99.90;;;;;;5045403;28;20559;-86
2021/09/30 06:18:31;;;;;;;245.63;227.88;;;9.50;99.90;;;;;;5041933;28;20185;-83
2021/09/30 06:20:57;;;;;;;180.37;165.83;;;9.50;99.90;;;;;;5058007;28;20183;-83
2021/09/30 06:23:23;;;;;;;187.03;172.27;;;9.60;99.90;;;;;;5057837;28;20388;-83
2021/09/30 06:25:49;;;;;;;176.98;162.98;;;9.60;99.90;;;;;;5057316;28;20160;-83
2021/09/30 06:28:15;;;;;;;172.10;158.23;;;9.60;99.90;;;;;;5058521;28;20207;-83
2021/09/30 06:30:40;;;;;;;191.57;176.20;;;9.70;99.90;;;;;;5041276;28;20165;-84
2021/09/30 06:33:06;;;;;;;237.50;220.20;;;9.60;99.90;;;;;;5057727;28;20244;-84
2021/09/30 06:35:32;;;;;;;233.23;216.17;;;9.70;99.90;;;;;;5038598;28;20172;-84
2021/09/30 06:37:57;;;;;;;202.53;187.23;;;9.80;99.90;;;;;;5057582;28;20180;-84
2021/09/30 06:40:23;;;;;;;184.37;169.13;;;9.80;99.90;;;;;;5057165;28;20636;-84
2021/09/30 06:42:49;;;;;;;174.60;159.37;;;9.90;99.90;;;;;;5057342;28;20196;-83
2021/09/30 06:45:15;;;;;;;147.93;134.47;;;9.90;99.90;;;;;;5039423;28;20635;-84
2021/09/30 06:47:44;;;;;;;165.88;151.68;;;10.00;99.90;;;;;;5039975;28;20256;-86
2021/09/30 06:50:11;;;;;;;159.57;146.13;;;10.00;99.90;;;;;;5059090;28;20161;-86
2021/09/30 06:52:37;;;;;;;143.70;130.27;;;10.00;99.90;;;;;;5040873;28;20168;-87
2021/09/30 06:55:04;;;;;;;151.20;138.30;;;10.00;99.90;;;;;;5059377;28;20164;-86
2021/09/30 06:57:30;;;;;;;127.35;115.28;;;10.00;99.90;;;;;;5088999;23;20231;-83
2021/09/30 06:59:59;;;;;;;136.43;124.00;;;10.10;99.90;;;;;;5037960;28;20244;-83
2021/09/30 07:02:25;;;;;;;138.77;126.15;;;10.10;99.90;;;;;;5037770;28;20450;-83
2021/09/30 07:04:51;;;;;;;134.03;121.47;;;10.10;99.90;;;;;;5037655;28;20524;-82
2021/09/30 07:07:17;;;;;;;131.10;118.90;;;10.10;99.90;;;;;;5037566;28;20421;-83
2021/09/30 07:09:46;;;;;;;146.43;133.20;;;10.10;99.90;;;;;;5020340;28;20641;-83
2021/09/30 07:12:13;;;;;;;159.73;146.20;;;10.10;99.90;;;;;;5037674;28;20220;-83
2021/09/30 07:14:40;;;;;;;139.95;127.30;;;10.10;99.90;;;;;;5037635;28;20186;-83
2021/09/30 07:17:09;;;;;;;149.98;136.73;;;10.10;99.90;;;;;;5019838;28;20607;-83
2021/09/30 07:19:36;;;;;;;137.35;124.28;;;10.20;99.90;;;;;;5037256;28;20188;-83
2021/09/30 07:22:04;;;;;;;133.80;121.03;;;10.30;99.90;;;;;;5037895;28;20185;-83
2021/09/30 07:24:30;;;;;;;154.48;141.20;;;10.30;99.90;;;;;;5037439;28;20200;-82
2021/09/30 07:26:56;;;;;;;166.38;152.63;;;10.30;99.90;;;;;;5019920;28;20683;-83
2021/09/30 07:29:22;;;;;;;160.87;146.73;;;10.30;99.90;;;;;;5037898;28;20165;-82
2021/09/30 07:31:47;;;;;;;186.80;171.33;;;10.30;99.90;;;;;;5019640;28;20434;-83
2021/09/30 07:34:16;;;;;;;156.90;143.47;;;10.30;99.90;;;;;;5038048;28;20182;-82
2021/09/30 07:36:45;;;;;;;183.45;168.05;;;10.30;99.90;;;;;;5020116;28;20193;-83
2021/09/30 07:39:11;;;;;;;178.75;163.95;;;10.30;99.90;;;;;;5037665;28;20176;-83
2021/09/30 07:41:37;;;;;;;181.02;166.68;;;10.40;99.90;;;;;;5037371;28;20185;-82
2021/09/30 07:44:05;;;;;;;199.43;184.03;;;10.50;99.90;;;;;;5037540;28;20163;-82
2021/09/30 07:46:35;;;;;;;153.07;139.85;;;10.60;99.90;;;;;;5037078;28;20824;-83
2021/09/30 07:49:03;;;;;;;171.70;156.85;;;10.60;99.90;;;;;;5037406;28;20169;-82
2021/09/30 07:51:32;;;;;;;134.32;121.35;;;10.70;99.90;;;;;;5020033;28;20169;-82
2021/09/30 07:53:57;;;;;;;155.60;142.10;;;10.80;99.90;;;;;;5037451;28;20521;-83
2021/09/30 07:56:28;;;;;;;149.13;135.30;;;10.90;99.90;;;;;;5037080;28;20180;-82
2021/09/30 07:58:54;;;;;;;140.77;127.97;;;11.00;99.90;;;;;;5019156;28;20161;-82
2021/09/30 08:01:22;;;;;;;137.25;123.80;;;11.00;99.90;;;;;;5037225;28;20196;-83
2021/09/30 08:03:49;;;;;;;137.23;123.82;;;11.00;99.90;;;;;;5036885;28;20196;-83
2021/09/30 08:06:16;;;;;;;140.60;127.10;;;11.10;99.90;;;;;;5019306;28;20173;-83
2021/09/30 08:08:41;;;;;;;139.65;127.07;;;11.20;99.90;;;;;;5036480;28;20185;-83
2021/09/30 08:11:07;;;;;;;164.10;150.57;;;11.30;99.90;;;;;;5036720;28;20176;-83
2021/09/30 08:13:33;;;;;;;161.63;148.23;;;11.40;99.90;;;;;;5037069;28;20166;-83
2021/09/30 08:16:00;;;;;;;183.95;169.80;;;11.50;99.90;;;;;;5018548;28;20424;-82
2021/09/30 08:18:26;;;;;;;193.15;178.65;;;11.60;99.90;;;;;;5018995;28;20199;-82
2021/09/30 08:20:52;;;;;;;187.70;173.30;;;11.70;99.90;;;;;;5036913;28;20165;-83
2021/09/30 08:23:18;;;;;;;166.07;152.27;;;11.80;99.90;;;;;;5036036;28;20200;-83
2021/09/30 08:25:47;;;;;;;173.98;159.93;;;11.80;99.90;;;;;;5036870;28;20161;-83
2021/09/30 08:28:13;;;;;;;193.95;179.30;;;11.90;99.90;;;;;;5018512;28;20189;-83
2021/09/30 08:30:40;;;;;;;179.40;165.57;;;11.90;99.90;;;;;;5036695;28;20161;-82
2021/09/30 08:33:08;;;;;;;119.75;107.65;;;12.00;99.90;;;;;;5036135;28;20244;-81
2021/09/30 08:35:34;;;;;;;109.65;98.10;;;12.00;99.90;;;;;;5018702;28;20169;-81
2021/09/30 08:38:00;;;;;;;106.18;91.47;;;12.10;99.90;;;;;;5036538;28;20200;-82
2021/09/30 08:40:26;;;;;;;100.70;80.20;;;12.20;99.90;;;;;;5036588;28;20169;-82
2021/09/30 08:42:52;;;;;;;90.73;65.43;;;12.30;99.90;;;;;;5037453;28;20185;-83
2021/09/30 08:45:22;;;;;;;86.27;51.37;;;12.30;99.90;;;;;;5036872;28;20220;-83
2021/09/30 08:48:04;;;;;;;81.88;44.55;;;12.40;99.90;;;;;;5036306;28;20446;-82
2021/09/30 08:50:38;;;;;;;85.97;50.40;;;12.40;99.90;;;;;;5035898;28;20172;-82
2021/09/30 08:53:06;;;;;;;85.25;47.33;;;12.60;99.90;;;;;;5018430;28;20165;-82
2021/09/30 08:55:32;;;;;;;86.00;45.58;;;12.50;99.90;;;;;;5018144;28;20185;-83
2021/09/30 08:58:02;;;;;;;84.00;43.40;;;12.60;99.90;;;;;;5035072;28;20575;-82
2021/09/30 09:00:29;;;;;;;84.85;49.97;;;12.60;99.90;;;;;;5036231;28;20153;-82
2021/09/30 09:02:55;;;;;;;84.10;50.08;;;12.70;99.90;;;;;;5018206;28;20197;-82
2021/09/30 09:05:22;;;;;;;83.33;49.10;;;12.60;99.90;;;;;;5036252;28;20640;-82
2021/09/30 09:08:01;;;;;;;84.35;45.97;;;12.70;99.90;;;;;;5035886;28;20284;-82
2021/09/30 09:10:32;;;;;;;84.88;45.75;;;12.80;99.90;;;;;;5036001;28;20153;-82
2021/09/30 09:13:05;;;;;;;83.97;44.28;;;12.80;99.90;;;;;;5018336;28;20571;-83
2021/09/30 09:15:40;;;;;;;85.40;38.72;;;12.80;99.90;;;;;;5036160;28;20251;-82
2021/09/30 09:18:12;;;;;;;87.00;54.63;;;12.80;99.90;;;;;;5035488;28;20238;-82
2021/09/30 09:20:37;;;;;;;86.47;60.00;;;12.90;99.90;;;;;;5035918;28;20174;-82
2021/09/30 09:23:09;;;;;;;113.03;101.30;;;12.90;99.90;;;;;;5036330;28;20194;-82
2021/09/30 09:25:35;;;;;;;118.03;106.40;;;13.10;99.90;;;;;;5018147;28;20161;-83
2021/09/30 09:28:04;;;;;;;124.00;112.13;;;13.20;99.90;;;;;;5036591;28;20188;-83
2021/09/30 09:30:47;;;;;;;99.93;89.07;;;13.30;99.90;;;;;;5036403;28;20162;-83
2021/09/30 09:33:27;;;;;;;129.02;116.90;;;13.40;99.90;;;;;;5035796;28;20391;-82
2021/09/30 09:36:06;;;;;;;135.60;123.70;;;13.40;99.90;;;;;;5017955;28;20162;-82
2021/09/30 09:38:41;;;;;;;138.23;126.23;;;13.50;99.90;;;;;;5017943;28;20446;-82
2021/09/30 09:41:07;;;;;;;151.53;137.90;;;13.50;99.90;;;;;;5018253;28;20770;-82
2021/09/30 09:43:41;;;;;;;147.87;135.37;;;13.70;99.90;;;;;;5018414;28;20412;-82
2021/09/30 09:46:08;;;;;;;149.03;136.23;;;13.90;99.90;;;;;;5036048;28;20145;-82
2021/09/30 09:48:35;;;;;;;148.20;135.63;;;14.20;99.90;;;;;;5036031;28;20938;-82
2021/09/30 09:51:11;;;;;;;146.93;134.40;;;14.40;99.90;;;;;;5035838;28;20438;-82
2021/09/30 09:53:38;;;;;;;82.87;40.57;;;14.70;99.90;;;;;;5036230;28;20388;-82
2021/09/30 09:56:22;;;;;;;83.30;47.50;;;14.80;98.50;;;;;;5018397;28;20457;-82
2021/09/30 09:58:56;;;;;;;74.40;25.60;;;15.00;99.90;;;;;;5018307;28;20438;-82
2021/09/30 10:01:25;;;;;;;72.93;20.60;;;15.20;98.50;;;;;;5035858;28;20448;-82
2021/09/30 10:03:58;;;;;;;72.30;18.20;;;15.30;97.20;;;;;;5241629;22;20514;-82
2021/09/30 10:06:25;;;;;;;71.57;21.10;;;15.30;95.80;;;;;;5038907;28;20416;-82
2021/09/30 10:08:51;;;;;;;73.50;23.23;;;15.30;96.00;;;;;;5041575;28;20405;-83
2021/09/30 10:11:17;;;;;;;75.10;17.00;;;15.30;96.80;;;;;;5044196;28;20432;-83
2021/09/30 10:13:44;;;;;;;74.30;21.17;;;15.20;92.30;;;;;;5061524;28;20461;-82
2021/09/30 10:16:10;;;;;;;71.10;18.23;;;15.10;92.60;;;;;;5060480;28;20401;-82
2021/09/30 10:18:36;;;;;;;82.50;46.13;;;15.30;95.30;;;;;;5060418;28;20881;-82
2021/09/30 10:21:02;;;;;;;83.03;51.83;;;15.60;91.90;;;;;;5042204;28;20451;-83
2021/09/30 10:23:32;;;;;;;83.10;43.40;;;15.80;90.30;;;;;;5060835;28;20399;-82
2021/09/30 10:26:12;;;;;;;73.80;26.57;;;15.80;82.90;;;;;;5060674;28;20439;-82
2021/09/30 10:28:40;;;;;;;76.97;35.37;;;15.60;80.10;;;;;;5042985;28;20424;-83
2021/09/30 10:31:25;;;;;;;74.17;28.53;;;15.60;74.40;;;;;;5060250;28;20401;-82
2021/09/30 10:33:53;;;;;;;77.23;34.33;;;15.50;78.80;;;;;;5042612;28;20467;-83
2021/09/30 10:36:44;;;;;;;82.57;41.80;;;15.60;66.10;;;;;;5060699;28;20419;-82
2021/09/30 10:39:23;;;;;;;113.67;102.27;;;15.50;62.40;;;;;;5044613;28;20455;-83
2021/09/30 10:42:03;;;;;;;137.60;125.40;;;15.50;50.30;;;;;;5060447;28;20419;-83
2021/09/30 10:44:35;;;;;;;119.50;108.17;;;15.50;49.70;;;;;;5061400;28;20459;-83
2021/09/30 10:47:08;;;;;;;94.07;74.50;;;15.60;45.20;;;;;;5042730;28;20432;-83
2021/09/30 10:49:55;;;;;;;90.67;64.57;;;15.60;42.90;;;;;;5042610;28;20432;-83
2021/09/30 10:52:32;;;;;;;145.23;133.17;;;15.60;37.80;;;;;;5042583;28;20415;-82
2021/09/30 10:55:10;;;;;;;93.33;70.77;;;15.80;44.30;;;;;;5042845;28;20427;-83
2021/09/30 10:57:42;;;;;;;92.73;68.87;;;15.80;40.50;;;;;;5043535;28;20470;-83
2021/09/30 11:00:18;;;;;;;107.13;94.70;;;16.00;35.50;;;;;;5060097;28;20445;-82
2021/09/30 11:03:02;;;;;;;119.80;108.20;;;16.30;33.10;;;;;;5041240;28;20440;-82
2021/09/30 11:05:38;;;;;;;87.77;70.67;;;16.50;35.30;;;;;;5041996;28;20487;-82
2021/09/30 11:08:27;;;;;;;83.67;46.17;;;16.50;23.90;;;;;;5061149;28;20504;-82
2021/09/30 11:13:57;;;;;;;85.50;62.60;;;16.70;17.20;;;;;;5055871;28;20406;-82
2021/09/30 11:16:39;;;;;;;90.70;70.87;;;17.00;8.40;;;;;;5042687;28;20447;-82
2021/09/30 11:19:06;;;;;;;110.60;99.67;;;16.90;12.60;;;;;;5041783;28;20400;-82
2021/09/30 11:21:32;;;;;;;130.40;118.97;;;16.90;5.60;;;;;;5059591;28;20447;-82
2021/09/30 11:24:02;;;;;;;127.77;115.73;;;16.80;4.20;;;;;;5059311;28;20408;-82
2021/09/30 11:26:32;;;;;;;97.07;84.50;;;16.60;8.50;;;;;;5059060;28;20399;-82
2021/09/30 11:29:33;;;;;;;75.77;38.10;;;16.70;6.60;;;;;;5060461;28;20383;-83
2021/09/30 11:32:30;;;;;;;;;;;;;;;;;;;;;
2021/09/30 11:35:27;;;;;;;114.47;103.17;;;16.50;8.00;;;;;;5059675;28;20485;-83
2021/09/30 11:37:56;;;;;;;128.70;116.97;;;16.30;5.00;;;;;;5059152;28;20548;-82
2021/09/30 11:40:25;;;;;;;74.37;30.27;;;16.20;4.80;;;;;;5041299;28;20433;-82
2021/09/30 11:42:55;;;;;;;81.50;48.10;;;16.20;9.40;;;;;;5058088;28;20961;-82
2021/09/30 11:45:27;;;;;;;75.00;35.17;;;16.20;12.90;;;;;;5058442;28;20384;-82
2021/09/30 11:48:06;;;;;;;126.50;114.77;;;16.20;14.20;;;;;;5057766;28;20421;-81
2021/09/30 11:50:34;;;;;;;86.30;46.73;;;16.30;8.10;;;;;;5040732;28;20539;-81
2021/09/30 11:53:04;;;;;;;144.83;132.40;;;16.30;10.10;;;;;;5040199;28;20954;-82
2021/09/30 11:55:31;;;;;;;135.43;123.60;;;16.30;7.30;;;;;;5058577;28;20402;-81
2021/09/30 11:58:04;;;;;;;99.90;89.47;;;16.30;7.50;;;;;;5040909;28;20441;-82
2021/09/30 12:00:32;;;;;;;127.73;115.77;;;16.20;6.80;;;;;;5040266;28;20478;-82
2021/09/30 12:03:04;;;;;;;130.97;119.47;;;16.20;5.50;;;;;;5040348;28;20854;-81
2021/09/30 12:05:33;;;;;;;99.17;85.67;;;16.20;5.10;;;;;;5040352;28;20425;-82
2021/09/30 12:08:03;;;;;;;101.30;90.73;;;16.30;7.20;;;;;;5058612;28;20520;-82
2021/09/30 12:10:34;;;;;;;88.13;72.73;;;16.40;7.00;;;;;;5040507;28;20418;-82
2021/09/30 12:13:00;;;;;;;135.60;124.00;;;16.40;8.30;;;;;;5058006;28;20400;-82
2021/09/30 12:15:26;;;;;;;143.93;131.90;;;16.50;4.40;;;;;;5040424;28;20414;-82
2021/09/30 12:17:52;;;;;;;95.27;81.23;;;16.50;5.90;;;;;;5058473;28;20785;-82
2021/09/30 12:20:19;;;;;;;122.50;111.03;;;16.40;2.10;;;;;;5057985;28;20402;-82
2021/09/30 12:22:53;;;;;;;135.87;124.13;;;16.40;3.50;;;;;;5039363;28;20185;-82
2021/09/30 12:25:27;;;;;;;150.20;137.33;;;16.50;5.80;;;;;;5058945;28;20405;-82
2021/09/30 12:27:55;;;;;;;162.13;149.50;;;16.50;3.80;;;;;;5058173;28;20422;-81
2021/09/30 12:30:29;;;;;;;150.13;137.73;;;16.50;4.60;;;;;;5057900;28;20805;-82
2021/09/30 12:33:07;;;;;;;148.60;136.00;;;16.50;5.10;;;;;;5057384;28;20393;-82
2021/09/30 12:35:38;;;;;;;152.27;139.93;;;16.60;4.50;;;;;;5038681;28;20438;-82
2021/09/30 12:38:13;;;;;;;155.93;143.50;;;16.70;4.10;;;;;;5056777;28;20422;-82
2021/09/30 12:40:41;;;;;;;143.97;131.73;;;16.80;7.60;;;;;;5057481;28;20834;-82
2021/09/30 12:43:11;;;;;;;100.07;89.57;;;17.00;4.60;;;;;;5039828;28;20478;-82
2021/09/30 12:46:04;;;;;;;90.17;73.97;;;17.10;3.00;;;;;;5057330;28;20486;-82
2021/09/30 12:48:32;;;;;;;98.23;87.63;;;17.10;1.00;;;;;;5038739;28;20431;-82
2021/09/30 12:51:01;;;;;;;78.13;44.07;;;17.10;1.00;;;;;;5039205;28;20822;-82
2021/09/30 12:53:28;;;;;;;83.50;58.57;;;17.00;1.00;;;;;;5057109;28;20398;-82
2021/09/30 12:58:35;;;;;;;127.30;115.10;;;16.90;1.00;;;;;;5128823;22;21025;-85
2021/09/30 13:01:33;;;;;;;86.50;64.80;;;16.70;1.00;;;;;;5038737;28;20415;-85
2021/09/30 13:04:23;;;;;;;92.57;78.00;;;16.80;1.00;;;;;;5049200;28;20959;-85
2021/09/30 13:07:07;;;;;;;175.60;162.43;;;16.80;1.00;;;;;;5038560;28;20437;-85
2021/09/30 13:10:00;;;;;;;86.83;56.90;;;16.80;4.20;;;;;;5055984;28;20386;-85
2021/09/30 13:12:26;;;;;;;163.63;150.33;;;17.00;1.00;;;;;;5038148;28;20407;-85
2021/09/30 13:14:53;;;;;;;184.03;170.53;;;16.90;2.10;;;;;;5059407;28;20406;-84
2021/09/30 13:17:27;;;;;;;183.00;169.30;;;16.70;4.60;;;;;;5039662;28;20195;-85
2021/09/30 13:20:20;;;;;;;93.70;75.43;;;16.70;5.90;;;;;;5055474;28;20390;-85
2021/09/30 13:23:09;;;;;;;165.60;152.67;;;16.80;6.00;;;;;;5053555;28;20535;-85
2021/09/30 13:26:13;;;;;;;93.23;63.77;;;16.70;10.10;;;;;;5022092;28;20422;-85
2021/09/30 13:28:45;;;;;;;81.90;49.47;;;16.80;1.00;;;;;;5054960;28;20556;-85
2021/09/30 13:31:10;;;;;;;78.17;42.87;;;16.70;1.00;;;;;;5037200;28;20482;-85
2021/09/30 13:33:36;;;;;;;78.77;43.97;;;16.70;1.00;;;;;;5056016;28;20461;-85
2021/09/30 13:36:07;;;;;;;79.80;47.37;;;16.60;1.00;;;;;;5037399;28;20172;-86
2021/09/30 13:38:33;;;;;;;83.23;49.70;;;16.60;1.10;;;;;;5037886;28;20660;-85
2021/09/30 13:40:59;;;;;;;94.17;84.00;;;16.60;1.00;;;;;;5037166;28;20462;-85
2021/09/30 13:43:24;;;;;;;80.47;46.57;;;16.40;1.00;;;;;;5055780;28;20202;-85
2021/09/30 13:45:50;;;;;;;101.93;86.57;;;16.40;1.00;;;;;;5058950;28;20163;-85
2021/09/30 13:48:18;;;;;;;109.70;98.83;;;16.30;1.00;;;;;;5059095;28;20198;-85
2021/09/30 13:50:45;;;;;;;171.73;158.37;;;16.20;3.20;;;;;;5040664;28;20566;-85
2021/09/30 13:53:11;;;;;;;126.90;115.23;;;16.20;4.50;;;;;;5059660;28;20755;-85
2021/09/30 13:55:37;;;;;;;153.07;140.47;;;16.30;2.70;;;;;;5040961;28;20424;-85
2021/09/30 13:58:03;;;;;;;81.13;48.53;;;16.20;5.80;;;;;;5041147;28;20449;-86
2021/09/30 14:00:28;;;;;;;81.10;46.73;;;16.20;8.70;;;;;;5041297;28;20162;-86
2021/09/30 14:02:54;;;;;;;96.00;84.10;;;16.20;11.00;;;;;;5059243;28;20226;-85
2021/09/30 14:05:20;;;;;;;76.27;40.00;;;16.20;15.70;;;;;;5059090;28;20655;-85
2021/09/30 14:07:47;;;;;;;88.73;66.00;;;16.30;13.60;;;;;;5041748;28;20187;-86
2021/09/30 14:10:16;;;;;;;100.73;90.40;;;16.20;15.20;;;;;;5041696;28;20184;-86
2021/09/30 14:12:43;;;;;;;89.93;73.03;;;16.20;20.80;;;;;;5059593;28;20405;-85
2021/09/30 14:15:09;;;;;;;91.97;81.47;;;16.10;19.10;;;;;;5058776;28;20414;-86
2021/09/30 14:17:40;;;;;;;103.37;92.57;;;16.20;20.60;;;;;;5040805;28;20434;-85
2021/09/30 14:20:06;;;;;;;91.00;80.27;;;16.40;23.60;;;;;;5058726;28;20383;-86
2021/09/30 14:22:32;;;;;;;85.73;58.70;;;16.50;19.80;;;;;;5058526;28;20442;-85
2021/09/30 14:24:58;;;;;;;174.00;160.57;;;16.60;18.30;;;;;;5040688;28;20468;-85
2021/09/30 14:27:24;;;;;;;185.00;170.97;;;16.80;9.40;;;;;;5058477;28;20663;-86
2021/09/30 14:29:50;;;;;;;85.33;61.63;;;16.70;8.80;;;;;;5058492;28;20167;-85
2021/09/30 14:32:16;;;;;;;83.00;55.43;;;16.80;3.40;;;;;;5040644;28;20832;-85
2021/09/30 14:34:41;;;;;;;81.90;53.00;;;16.80;1.20;;;;;;5058460;28;20160;-85
2021/09/30 14:37:08;;;;;;;82.27;55.50;;;16.70;1.00;;;;;;5058169;28;20211;-85
2021/09/30 14:39:33;;;;;;;88.40;70.67;;;16.60;1.00;;;;;;5059165;28;20171;-86
2021/09/30 14:41:59;;;;;;;80.10;46.77;;;16.50;1.10;;;;;;5058565;28;20441;-86
2021/09/30 14:44:25;;;;;;;83.27;49.00;;;16.40;1.00;;;;;;5040338;28;20259;-86
2021/09/30 14:46:54;;;;;;;84.70;56.80;;;16.40;1.80;;;;;;5059134;28;20207;-86
2021/09/30 14:49:20;;;;;;;78.77;43.60;;;16.40;1.00;;;;;;5058314;28;20189;-86
2021/09/30 14:51:46;;;;;;;115.83;103.97;;;16.40;2.10;;;;;;5058494;28;20407;-85
2021/09/30 14:54:12;;;;;;;97.53;86.87;;;16.40;4.00;;;;;;5040989;28;20417;-85
2021/09/30 14:56:38;;;;;;;164.73;151.77;;;16.30;3.10;;;;;;5057416;28;20405;-85
2021/09/30 14:59:03;;;;;;;126.67;115.27;;;16.30;6.00;;;;;;5058992;28;20554;-85
2021/09/30 15:01:29;;;;;;;100.53;89.50;;;16.30;10.70;;;;;;5057355;28;20194;-85
2021/09/30 15:03:55;;;;;;;96.33;75.83;;;16.30;18.00;;;;;;5040897;28;20168;-86
2021/09/30 15:06:31;;;;;;;80.67;51.73;;;16.20;14.00;;;;;;5040550;28;20171;-85
2021/09/30 15:08:56;;;;;;;79.47;45.77;;;16.10;18.00;;;;;;5058277;28;20899;-85
2021/09/30 15:11:25;;;;;;;96.27;83.13;;;16.00;18.50;;;;;;5039758;28;20410;-85
2021/09/30 15:13:50;;;;;;;92.40;76.00;;;16.00;24.00;;;;;;5039698;28;20176;-85
2021/09/30 15:16:16;;;;;;;85.70;67.17;;;15.90;24.00;;;;;;5057827;28;20401;-85
2021/09/30 15:21:20;;;;;;;124.10;111.87;;;15.90;26.50;;;;;;5057828;28;20249;-85
2021/09/30 15:23:56;;;;;;;85.50;58.03;;;15.90;38.80;;;;;;5057430;28;20385;-85
2021/09/30 15:26:24;;;;;;;88.40;70.83;;;15.90;38.90;;;;;;5039235;28;20455;-85
2021/09/30 15:28:51;;;;;;;89.60;77.53;;;16.10;36.40;;;;;;5039375;28;20419;-85